sensor_id;sensor_type;location;lat;lon;timestamp;P1;durP1;ratioP1;P2;durP2;ratioP2
23155;SDS011;11746;50.876;4.246;2022-09-28T00:00:38;2.83;;;1.83;;
23155;SDS011;11746;50.876;4.246;2022-09-28T00:03:14;3.53;;;2.10;;
23155;SDS011;11746;50.876;4.246;2022-09-28T00:05:40;4.47;;;2.15;;
23155;SDS011;11746;50.876;4.246;2022-09-28T00:08:08;4.68;;;2.00;;
23155;SDS011;11746;50.876;4.246;2022-09-28T00:10:36;5.25;;;1.95;;
23155;SDS011;11746;50.876;4.246;2022-09-28T00:13:02;4.75;;;2.15;;
23155;SDS011;11746;50.876;4.246;2022-09-28T00:15:30;3.47;;;1.48;;
23155;SDS011;11746;50.876;4.246;2022-09-28T00:17:58;2.78;;;1.48;;
23155;SDS011;11746;50.876;4.246;2022-09-28T00:20:27;4.00;;;1.30;;
23155;SDS011;11746;50.876;4.246;2022-09-28T00:22:53;3.30;;;1.50;;
23155;SDS011;11746;50.876;4.246;2022-09-28T00:25:21;2.85;;;1.52;;
23155;SDS011;11746;50.876;4.246;2022-09-28T00:27:49;4.18;;;1.40;;
23155;SDS011;11746;50.876;4.246;2022-09-28T00:30:20;3.55;;;1.70;;
23155;SDS011;11746;50.876;4.246;2022-09-28T00:32:46;2.15;;;1.27;;
23155;SDS011;11746;50.876;4.246;2022-09-28T00:35:15;2.83;;;1.60;;
23155;SDS011;11746;50.876;4.246;2022-09-28T00:37:41;3.35;;;1.40;;
23155;SDS011;11746;50.876;4.246;2022-09-28T00:40:07;3.50;;;1.45;;
23155;SDS011;11746;50.876;4.246;2022-09-28T00:42:33;4.55;;;1.75;;
23155;SDS011;11746;50.876;4.246;2022-09-28T00:44:59;4.60;;;1.70;;
23155;SDS011;11746;50.876;4.246;2022-09-28T00:47:26;5.32;;;1.90;;
23155;SDS011;11746;50.876;4.246;2022-09-28T00:55:38;4.45;;;1.70;;
23155;SDS011;11746;50.876;4.246;2022-09-28T00:58:12;3.75;;;1.75;;
23155;SDS011;11746;50.876;4.246;2022-09-28T01:00:41;5.70;;;1.90;;
23155;SDS011;11746;50.876;4.246;2022-09-28T01:03:07;4.72;;;2.08;;
23155;SDS011;11746;50.876;4.246;2022-09-28T01:05:34;4.70;;;2.33;;
23155;SDS011;11746;50.876;4.246;2022-09-28T01:08:03;5.75;;;2.47;;
23155;SDS011;11746;50.876;4.246;2022-09-28T01:10:34;5.13;;;1.90;;
23155;SDS011;11746;50.876;4.246;2022-09-28T01:13:03;6.97;;;2.22;;
23155;SDS011;11746;50.876;4.246;2022-09-28T01:15:29;5.07;;;2.08;;
23155;SDS011;11746;50.876;4.246;2022-09-28T01:18:10;5.13;;;1.80;;
23155;SDS011;11746;50.876;4.246;2022-09-28T01:23:54;4.88;;;1.90;;
23155;SDS011;11746;50.876;4.246;2022-09-28T01:31:36;4.00;;;2.08;;
23155;SDS011;11746;50.876;4.246;2022-09-28T01:34:11;3.63;;;1.80;;
23155;SDS011;11746;50.876;4.246;2022-09-28T01:36:42;6.07;;;2.38;;
23155;SDS011;11746;50.876;4.246;2022-09-28T01:39:22;3.58;;;2.20;;
23155;SDS011;11746;50.876;4.246;2022-09-28T01:42:04;2.80;;;1.60;;
23155;SDS011;11746;50.876;4.246;2022-09-28T01:44:40;6.07;;;1.88;;
23155;SDS011;11746;50.876;4.246;2022-09-28T01:47:09;4.35;;;2.40;;
23155;SDS011;11746;50.876;4.246;2022-09-28T01:49:40;4.18;;;1.95;;
23155;SDS011;11746;50.876;4.246;2022-09-28T01:52:27;4.90;;;1.90;;
23155;SDS011;11746;50.876;4.246;2022-09-28T01:55:05;4.35;;;1.95;;
23155;SDS011;11746;50.876;4.246;2022-09-28T02:00:10;3.35;;;1.80;;
23155;SDS011;11746;50.876;4.246;2022-09-28T02:02:48;3.92;;;1.88;;
23155;SDS011;11746;50.876;4.246;2022-09-28T02:05:23;2.90;;;1.77;;
23155;SDS011;11746;50.876;4.246;2022-09-28T02:11:34;7.63;;;2.22;;
23155;SDS011;11746;50.876;4.246;2022-09-28T02:13:45;4.55;;;2.17;;
23155;SDS011;11746;50.876;4.246;2022-09-28T02:16:13;5.05;;;2.15;;
23155;SDS011;11746;50.876;4.246;2022-09-28T02:18:47;4.18;;;2.00;;
23155;SDS011;11746;50.876;4.246;2022-09-28T02:21:14;4.43;;;2.10;;
23155;SDS011;11746;50.876;4.246;2022-09-28T02:23:57;3.38;;;1.80;;
23155;SDS011;11746;50.876;4.246;2022-09-28T02:26:40;3.95;;;2.10;;
23155;SDS011;11746;50.876;4.246;2022-09-28T02:29:08;6.72;;;2.33;;
23155;SDS011;11746;50.876;4.246;2022-09-28T02:31:34;4.90;;;1.92;;
23155;SDS011;11746;50.876;4.246;2022-09-28T02:33:59;5.50;;;1.85;;
23155;SDS011;11746;50.876;4.246;2022-09-28T02:36:25;6.95;;;1.95;;
23155;SDS011;11746;50.876;4.246;2022-09-28T02:38:52;3.53;;;1.70;;
23155;SDS011;11746;50.876;4.246;2022-09-28T02:57:22;6.25;;;1.70;;
23155;SDS011;11746;50.876;4.246;2022-09-28T03:05:11;2.92;;;1.25;;
23155;SDS011;11746;50.876;4.246;2022-09-28T03:07:40;3.38;;;1.45;;
23155;SDS011;11746;50.876;4.246;2022-09-28T03:10:39;3.55;;;1.25;;
23155;SDS011;11746;50.876;4.246;2022-09-28T03:13:12;5.45;;;1.63;;
23155;SDS011;11746;50.876;4.246;2022-09-28T03:15:40;2.25;;;0.90;;
23155;SDS011;11746;50.876;4.246;2022-09-28T03:18:07;2.55;;;1.38;;
23155;SDS011;11746;50.876;4.246;2022-09-28T03:20:37;4.30;;;1.40;;
23155;SDS011;11746;50.876;4.246;2022-09-28T03:23:03;2.95;;;1.20;;
23155;SDS011;11746;50.876;4.246;2022-09-28T03:25:29;2.33;;;1.20;;
23155;SDS011;11746;50.876;4.246;2022-09-28T03:27:55;2.55;;;0.90;;
23155;SDS011;11746;50.876;4.246;2022-09-28T03:30:23;3.10;;;1.20;;
23155;SDS011;11746;50.876;4.246;2022-09-28T03:32:58;3.13;;;1.10;;
23155;SDS011;11746;50.876;4.246;2022-09-28T03:35:24;2.90;;;1.30;;
23155;SDS011;11746;50.876;4.246;2022-09-28T03:37:56;3.03;;;1.23;;
23155;SDS011;11746;50.876;4.246;2022-09-28T03:40:24;2.80;;;1.00;;
23155;SDS011;11746;50.876;4.246;2022-09-28T03:42:53;4.45;;;1.52;;
23155;SDS011;11746;50.876;4.246;2022-09-28T03:45:19;2.65;;;1.20;;
23155;SDS011;11746;50.876;4.246;2022-09-28T03:47:47;2.42;;;1.00;;
23155;SDS011;11746;50.876;4.246;2022-09-28T03:50:13;2.97;;;1.30;;
23155;SDS011;11746;50.876;4.246;2022-09-28T03:52:40;4.65;;;1.10;;
23155;SDS011;11746;50.876;4.246;2022-09-28T03:55:06;6.15;;;1.60;;
23155;SDS011;11746;50.876;4.246;2022-09-28T03:57:33;3.38;;;1.10;;
23155;SDS011;11746;50.876;4.246;2022-09-28T03:59:59;4.95;;;1.50;;
23155;SDS011;11746;50.876;4.246;2022-09-28T04:02:27;2.17;;;1.40;;
23155;SDS011;11746;50.876;4.246;2022-09-28T04:04:53;2.42;;;1.00;;
23155;SDS011;11746;50.876;4.246;2022-09-28T04:07:19;3.25;;;1.45;;
23155;SDS011;11746;50.876;4.246;2022-09-28T04:09:45;3.08;;;1.20;;
23155;SDS011;11746;50.876;4.246;2022-09-28T04:12:10;4.45;;;1.27;;
23155;SDS011;11746;50.876;4.246;2022-09-28T04:14:36;4.75;;;1.60;;
23155;SDS011;11746;50.876;4.246;2022-09-28T04:17:01;3.17;;;1.35;;
23155;SDS011;11746;50.876;4.246;2022-09-28T04:19:32;3.80;;;1.38;;
23155;SDS011;11746;50.876;4.246;2022-09-28T04:22:00;1.65;;;1.40;;
23155;SDS011;11746;50.876;4.246;2022-09-28T04:24:27;1.70;;;1.17;;
23155;SDS011;11746;50.876;4.246;2022-09-28T04:26:55;4.90;;;1.30;;
23155;SDS011;11746;50.876;4.246;2022-09-28T04:29:41;2.78;;;1.35;;
23155;SDS011;11746;50.876;4.246;2022-09-28T04:32:11;3.47;;;2.05;;
23155;SDS011;11746;50.876;4.246;2022-09-28T04:34:40;5.40;;;2.70;;
23155;SDS011;11746;50.876;4.246;2022-09-28T04:37:06;4.05;;;2.60;;
23155;SDS011;11746;50.876;4.246;2022-09-28T04:39:32;2.92;;;1.80;;
23155;SDS011;11746;50.876;4.246;2022-09-28T04:42:00;3.67;;;2.00;;
23155;SDS011;11746;50.876;4.246;2022-09-28T04:44:28;2.88;;;2.17;;
23155;SDS011;11746;50.876;4.246;2022-09-28T04:46:56;3.10;;;2.20;;
23155;SDS011;11746;50.876;4.246;2022-09-28T04:49:23;4.43;;;1.95;;
23155;SDS011;11746;50.876;4.246;2022-09-28T04:51:49;4.03;;;1.48;;
23155;SDS011;11746;50.876;4.246;2022-09-28T04:54:15;2.78;;;1.35;;
23155;SDS011;11746;50.876;4.246;2022-09-28T04:56:43;2.72;;;1.33;;
23155;SDS011;11746;50.876;4.246;2022-09-28T04:59:09;2.67;;;1.60;;
23155;SDS011;11746;50.876;4.246;2022-09-28T05:01:39;2.08;;;1.25;;
23155;SDS011;11746;50.876;4.246;2022-09-28T05:04:07;3.97;;;1.40;;
23155;SDS011;11746;50.876;4.246;2022-09-28T05:06:34;5.60;;;1.48;;
23155;SDS011;11746;50.876;4.246;2022-09-28T05:09:00;4.80;;;1.60;;
23155;SDS011;11746;50.876;4.246;2022-09-28T05:11:25;4.80;;;1.67;;
23155;SDS011;11746;50.876;4.246;2022-09-28T05:13:51;4.13;;;1.80;;
23155;SDS011;11746;50.876;4.246;2022-09-28T05:16:19;4.55;;;2.03;;
23155;SDS011;11746;50.876;4.246;2022-09-28T05:18:44;3.05;;;1.73;;
23155;SDS011;11746;50.876;4.246;2022-09-28T05:21:11;5.65;;;2.45;;
23155;SDS011;11746;50.876;4.246;2022-09-28T05:23:38;5.55;;;2.20;;
23155;SDS011;11746;50.876;4.246;2022-09-28T05:26:05;4.70;;;2.35;;
23155;SDS011;11746;50.876;4.246;2022-09-28T05:28:32;6.70;;;2.38;;
23155;SDS011;11746;50.876;4.246;2022-09-28T05:30:58;4.13;;;2.53;;
23155;SDS011;11746;50.876;4.246;2022-09-28T05:33:25;4.28;;;2.65;;
23155;SDS011;11746;50.876;4.246;2022-09-28T05:35:51;6.80;;;2.92;;
23155;SDS011;11746;50.876;4.246;2022-09-28T05:38:17;4.72;;;2.80;;
23155;SDS011;11746;50.876;4.246;2022-09-28T05:40:45;5.55;;;3.00;;
23155;SDS011;11746;50.876;4.246;2022-09-28T05:43:13;3.75;;;2.80;;
23155;SDS011;11746;50.876;4.246;2022-09-28T05:45:39;7.60;;;3.60;;
23155;SDS011;11746;50.876;4.246;2022-09-28T05:48:07;6.32;;;3.50;;
23155;SDS011;11746;50.876;4.246;2022-09-28T05:50:33;7.10;;;3.55;;
23155;SDS011;11746;50.876;4.246;2022-09-28T05:52:59;6.75;;;4.15;;
23155;SDS011;11746;50.876;4.246;2022-09-28T05:55:27;9.20;;;4.60;;
23155;SDS011;11746;50.876;4.246;2022-09-28T05:57:56;10.00;;;5.03;;
23155;SDS011;11746;50.876;4.246;2022-09-28T06:00:23;9.02;;;5.57;;
23155;SDS011;11746;50.876;4.246;2022-09-28T06:02:54;10.10;;;5.30;;
23155;SDS011;11746;50.876;4.246;2022-09-28T06:05:24;10.32;;;5.57;;
23155;SDS011;11746;50.876;4.246;2022-09-28T06:07:50;10.20;;;5.45;;
23155;SDS011;11746;50.876;4.246;2022-09-28T06:10:16;10.48;;;5.80;;
23155;SDS011;11746;50.876;4.246;2022-09-28T06:12:44;13.85;;;6.45;;
23155;SDS011;11746;50.876;4.246;2022-09-28T06:15:14;12.15;;;6.85;;
23155;SDS011;11746;50.876;4.246;2022-09-28T06:17:40;11.95;;;6.28;;
23155;SDS011;11746;50.876;4.246;2022-09-28T06:20:07;8.98;;;5.43;;
23155;SDS011;11746;50.876;4.246;2022-09-28T06:22:34;9.02;;;5.53;;
23155;SDS011;11746;50.876;4.246;2022-09-28T06:25:02;9.68;;;5.65;;
23155;SDS011;11746;50.876;4.246;2022-09-28T06:27:29;9.80;;;5.53;;
23155;SDS011;11746;50.876;4.246;2022-09-28T06:29:55;9.32;;;6.13;;
23155;SDS011;11746;50.876;4.246;2022-09-28T06:32:21;10.35;;;6.13;;
23155;SDS011;11746;50.876;4.246;2022-09-28T06:34:46;8.68;;;5.80;;
23155;SDS011;11746;50.876;4.246;2022-09-28T06:37:12;9.07;;;5.63;;
23155;SDS011;11746;50.876;4.246;2022-09-28T06:39:38;8.10;;;5.38;;
23155;SDS011;11746;50.876;4.246;2022-09-28T06:42:03;10.27;;;5.38;;
23155;SDS011;11746;50.876;4.246;2022-09-28T06:44:29;10.68;;;6.47;;
23155;SDS011;11746;50.876;4.246;2022-09-28T06:46:56;8.80;;;6.13;;
23155;SDS011;11746;50.876;4.246;2022-09-28T06:49:25;8.52;;;5.32;;
23155;SDS011;11746;50.876;4.246;2022-09-28T06:51:54;9.30;;;6.10;;
23155;SDS011;11746;50.876;4.246;2022-09-28T06:54:24;12.30;;;6.07;;
23155;SDS011;11746;50.876;4.246;2022-09-28T06:56:51;13.35;;;6.78;;
23155;SDS011;11746;50.876;4.246;2022-09-28T06:59:19;13.60;;;6.85;;
23155;SDS011;11746;50.876;4.246;2022-09-28T07:01:45;9.80;;;6.38;;
23155;SDS011;11746;50.876;4.246;2022-09-28T07:04:12;10.45;;;6.63;;
23155;SDS011;11746;50.876;4.246;2022-09-28T07:06:38;11.82;;;6.78;;
23155;SDS011;11746;50.876;4.246;2022-09-28T07:09:10;9.65;;;6.60;;
23155;SDS011;11746;50.876;4.246;2022-09-28T07:11:38;11.82;;;6.00;;
23155;SDS011;11746;50.876;4.246;2022-09-28T07:14:04;11.35;;;6.60;;
23155;SDS011;11746;50.876;4.246;2022-09-28T07:16:33;12.52;;;6.15;;
23155;SDS011;11746;50.876;4.246;2022-09-28T07:19:02;12.23;;;6.28;;
23155;SDS011;11746;50.876;4.246;2022-09-28T07:21:29;13.13;;;6.53;;
23155;SDS011;11746;50.876;4.246;2022-09-28T07:23:54;11.57;;;6.88;;
23155;SDS011;11746;50.876;4.246;2022-09-28T07:26:20;69.00;;;12.88;;
23155;SDS011;11746;50.876;4.246;2022-09-28T07:28:46;13.40;;;6.07;;
23155;SDS011;11746;50.876;4.246;2022-09-28T07:31:11;8.25;;;5.40;;
23155;SDS011;11746;50.876;4.246;2022-09-28T07:33:37;8.32;;;5.75;;
23155;SDS011;11746;50.876;4.246;2022-09-28T07:36:03;11.65;;;5.60;;
23155;SDS011;11746;50.876;4.246;2022-09-28T07:38:31;9.50;;;5.70;;
23155;SDS011;11746;50.876;4.246;2022-09-28T07:40:57;10.68;;;5.60;;
23155;SDS011;11746;50.876;4.246;2022-09-28T07:43:35;9.80;;;5.25;;
23155;SDS011;11746;50.876;4.246;2022-09-28T07:46:03;10.02;;;5.72;;
23155;SDS011;11746;50.876;4.246;2022-09-28T07:48:33;10.20;;;5.50;;
23155;SDS011;11746;50.876;4.246;2022-09-28T07:51:00;12.30;;;5.20;;
23155;SDS011;11746;50.876;4.246;2022-09-28T07:53:29;9.57;;;4.95;;
23155;SDS011;11746;50.876;4.246;2022-09-28T07:55:58;9.77;;;5.20;;
23155;SDS011;11746;50.876;4.246;2022-09-28T07:58:34;14.77;;;5.05;;
23155;SDS011;11746;50.876;4.246;2022-09-28T08:01:05;13.93;;;5.55;;
23155;SDS011;11746;50.876;4.246;2022-09-28T08:03:32;10.68;;;4.70;;
23155;SDS011;11746;50.876;4.246;2022-09-28T08:05:59;9.85;;;5.38;;
23155;SDS011;11746;50.876;4.246;2022-09-28T08:08:28;10.95;;;5.22;;
23155;SDS011;11746;50.876;4.246;2022-09-28T08:10:55;10.07;;;5.32;;
23155;SDS011;11746;50.876;4.246;2022-09-28T08:13:24;8.38;;;4.80;;
23155;SDS011;11746;50.876;4.246;2022-09-28T08:15:51;12.73;;;5.00;;
23155;SDS011;11746;50.876;4.246;2022-09-28T08:18:17;10.50;;;4.50;;
23155;SDS011;11746;50.876;4.246;2022-09-28T08:20:44;10.00;;;4.47;;
23155;SDS011;11746;50.876;4.246;2022-09-28T08:23:29;8.65;;;4.43;;
23155;SDS011;11746;50.876;4.246;2022-09-28T08:25:54;10.80;;;4.00;;
23155;SDS011;11746;50.876;4.246;2022-09-28T08:28:21;12.98;;;4.38;;
23155;SDS011;11746;50.876;4.246;2022-09-28T08:30:48;7.82;;;4.00;;
23155;SDS011;11746;50.876;4.246;2022-09-28T08:33:16;9.52;;;4.82;;
23155;SDS011;11746;50.876;4.246;2022-09-28T08:35:45;11.50;;;4.55;;
23155;SDS011;11746;50.876;4.246;2022-09-28T08:38:11;9.82;;;4.30;;
23155;SDS011;11746;50.876;4.246;2022-09-28T08:40:45;11.80;;;5.35;;
23155;SDS011;11746;50.876;4.246;2022-09-28T08:43:21;8.27;;;4.03;;
23155;SDS011;11746;50.876;4.246;2022-09-28T08:45:55;8.93;;;4.32;;
23155;SDS011;11746;50.876;4.246;2022-09-28T08:48:27;22.30;;;6.35;;
23155;SDS011;11746;50.876;4.246;2022-09-28T08:51:09;9.95;;;3.78;;
23155;SDS011;11746;50.876;4.246;2022-09-28T08:53:47;8.25;;;3.78;;
23155;SDS011;11746;50.876;4.246;2022-09-28T08:56:21;7.22;;;3.35;;
23155;SDS011;11746;50.876;4.246;2022-09-28T08:58:55;8.20;;;3.58;;
23155;SDS011;11746;50.876;4.246;2022-09-28T09:01:27;9.75;;;4.35;;
23155;SDS011;11746;50.876;4.246;2022-09-28T09:03:58;11.48;;;3.65;;
23155;SDS011;11746;50.876;4.246;2022-09-28T09:19:34;5.72;;;3.10;;
23155;SDS011;11746;50.876;4.246;2022-09-28T09:22:15;7.88;;;3.03;;
23155;SDS011;11746;50.876;4.246;2022-09-28T09:24:50;6.00;;;2.73;;
23155;SDS011;11746;50.876;4.246;2022-09-28T09:29:59;7.03;;;3.15;;
23155;SDS011;11746;50.876;4.246;2022-09-28T09:35:48;8.90;;;2.35;;
23155;SDS011;11746;50.876;4.246;2022-09-28T09:49:16;5.35;;;2.22;;
23155;SDS011;11746;50.876;4.246;2022-09-28T09:57:16;5.32;;;1.80;;
23155;SDS011;11746;50.876;4.246;2022-09-28T09:59:45;6.25;;;1.75;;
23155;SDS011;11746;50.876;4.246;2022-09-28T10:02:25;5.43;;;2.05;;
23155;SDS011;11746;50.876;4.246;2022-09-28T10:04:52;5.15;;;1.60;;
23155;SDS011;11746;50.876;4.246;2022-09-28T10:12:51;2.72;;;0.90;;
23155;SDS011;11746;50.876;4.246;2022-09-28T10:15:24;6.20;;;1.10;;
23155;SDS011;11746;50.876;4.246;2022-09-28T10:17:58;3.30;;;0.60;;
23155;SDS011;11746;50.876;4.246;2022-09-28T10:20:30;6.88;;;0.80;;
23155;SDS011;11746;50.876;4.246;2022-09-28T10:22:59;3.13;;;0.98;;
23155;SDS011;11746;50.876;4.246;2022-09-28T10:25:32;6.03;;;1.35;;
23155;SDS011;11746;50.876;4.246;2022-09-28T10:28:02;3.83;;;0.88;;
23155;SDS011;11746;50.876;4.246;2022-09-28T10:30:30;7.18;;;0.90;;
23155;SDS011;11746;50.876;4.246;2022-09-28T10:33:06;5.40;;;1.10;;
23155;SDS011;11746;50.876;4.246;2022-09-28T10:36:00;5.73;;;1.33;;
23155;SDS011;11746;50.876;4.246;2022-09-28T10:38:30;3.20;;;0.93;;
23155;SDS011;11746;50.876;4.246;2022-09-28T10:40:57;4.88;;;1.20;;
23155;SDS011;11746;50.876;4.246;2022-09-28T10:43:29;3.28;;;1.25;;
23155;SDS011;11746;50.876;4.246;2022-09-28T10:46:20;5.25;;;1.13;;
23155;SDS011;11746;50.876;4.246;2022-09-28T10:51:13;5.38;;;1.40;;
23155;SDS011;11746;50.876;4.246;2022-09-28T10:53:40;5.05;;;1.27;;
23155;SDS011;11746;50.876;4.246;2022-09-28T10:56:17;5.43;;;1.45;;
23155;SDS011;11746;50.876;4.246;2022-09-28T10:58:44;10.27;;;1.20;;
23155;SDS011;11746;50.876;4.246;2022-09-28T11:01:11;5.90;;;1.50;;
23155;SDS011;11746;50.876;4.246;2022-09-28T11:03:47;6.68;;;1.45;;
23155;SDS011;11746;50.876;4.246;2022-09-28T11:06:23;3.38;;;1.33;;
23155;SDS011;11746;50.876;4.246;2022-09-28T11:08:51;2.50;;;1.10;;
23155;SDS011;11746;50.876;4.246;2022-09-28T11:11:21;3.88;;;1.15;;
23155;SDS011;11746;50.876;4.246;2022-09-28T11:13:52;5.22;;;1.30;;
23155;SDS011;11746;50.876;4.246;2022-09-28T11:16:38;4.70;;;1.30;;
23155;SDS011;11746;50.876;4.246;2022-09-28T11:19:26;3.85;;;1.38;;
23155;SDS011;11746;50.876;4.246;2022-09-28T11:21:53;5.82;;;1.90;;
23155;SDS011;11746;50.876;4.246;2022-09-28T11:26:47;5.05;;;1.10;;
23155;SDS011;11746;50.876;4.246;2022-09-28T11:29:25;5.95;;;1.70;;
23155;SDS011;11746;50.876;4.246;2022-09-28T11:32:02;3.90;;;1.33;;
23155;SDS011;11746;50.876;4.246;2022-09-28T11:34:37;4.53;;;1.42;;
23155;SDS011;11746;50.876;4.246;2022-09-28T11:40:17;2.63;;;1.30;;
23155;SDS011;11746;50.876;4.246;2022-09-28T11:43:31;4.70;;;1.10;;
23155;SDS011;11746;50.876;4.246;2022-09-28T11:46:17;3.00;;;1.15;;
23155;SDS011;11746;50.876;4.246;2022-09-28T11:51:47;4.43;;;1.05;;
23155;SDS011;11746;50.876;4.246;2022-09-28T11:54:26;3.72;;;1.70;;
23155;SDS011;11746;50.876;4.246;2022-09-28T11:56:58;4.07;;;1.30;;
23155;SDS011;11746;50.876;4.246;2022-09-28T11:59:32;6.93;;;1.38;;
23155;SDS011;11746;50.876;4.246;2022-09-28T12:02:19;3.05;;;0.70;;
23155;SDS011;11746;50.876;4.246;2022-09-28T12:07:50;3.10;;;0.57;;
23155;SDS011;11746;50.876;4.246;2022-09-28T12:10:46;2.28;;;0.50;;
23155;SDS011;11746;50.876;4.246;2022-09-28T12:13:22;5.85;;;4.93;;
23155;SDS011;11746;50.876;4.246;2022-09-28T12:15:56;3.65;;;1.55;;
23155;SDS011;11746;50.876;4.246;2022-09-28T12:18:46;6.05;;;1.30;;
23155;SDS011;11746;50.876;4.246;2022-09-28T12:21:36;4.05;;;1.00;;
23155;SDS011;11746;50.876;4.246;2022-09-28T12:26:56;3.28;;;1.00;;
23155;SDS011;11746;50.876;4.246;2022-09-28T12:29:25;2.65;;;0.60;;
23155;SDS011;11746;50.876;4.246;2022-09-28T12:32:09;2.40;;;0.60;;
23155;SDS011;11746;50.876;4.246;2022-09-28T12:34:59;3.60;;;1.15;;
23155;SDS011;11746;50.876;4.246;2022-09-28T12:45:46;2.47;;;0.40;;
23155;SDS011;11746;50.876;4.246;2022-09-28T12:51:40;3.45;;;0.65;;
23155;SDS011;11746;50.876;4.246;2022-09-28T13:10:52;5.20;;;0.90;;
23155;SDS011;11746;50.876;4.246;2022-09-28T13:24:56;3.95;;;0.60;;
23155;SDS011;11746;50.876;4.246;2022-09-28T13:27:34;1.63;;;0.40;;
23155;SDS011;11746;50.876;4.246;2022-09-28T13:30:04;2.97;;;0.50;;
23155;SDS011;11746;50.876;4.246;2022-09-28T13:32:34;1.38;;;0.30;;
23155;SDS011;11746;50.876;4.246;2022-09-28T13:35:01;4.43;;;0.40;;
23155;SDS011;11746;50.876;4.246;2022-09-28T13:37:27;3.58;;;0.47;;
23155;SDS011;11746;50.876;4.246;2022-09-28T13:39:54;1.80;;;0.50;;
23155;SDS011;11746;50.876;4.246;2022-09-28T13:42:39;2.05;;;0.52;;
23155;SDS011;11746;50.876;4.246;2022-09-28T13:47:51;5.40;;;0.98;;
23155;SDS011;11746;50.876;4.246;2022-09-28T13:58:43;5.93;;;0.95;;
23155;SDS011;11746;50.876;4.246;2022-09-28T14:01:18;4.07;;;0.50;;
23155;SDS011;11746;50.876;4.246;2022-09-28T14:03:54;7.28;;;1.75;;
23155;SDS011;11746;50.876;4.246;2022-09-28T14:06:40;4.13;;;0.68;;
23155;SDS011;11746;50.876;4.246;2022-09-28T14:09:37;2.78;;;0.60;;
23155;SDS011;11746;50.876;4.246;2022-09-28T14:14:58;2.20;;;0.65;;
23155;SDS011;11746;50.876;4.246;2022-09-28T14:20:11;4.72;;;0.70;;
23155;SDS011;11746;50.876;4.246;2022-09-28T14:26:23;4.05;;;0.50;;
23155;SDS011;11746;50.876;4.246;2022-09-28T14:28:56;0.80;;;0.43;;
23155;SDS011;11746;50.876;4.246;2022-09-28T14:31:53;2.35;;;0.30;;
23155;SDS011;11746;50.876;4.246;2022-09-28T14:34:32;2.25;;;0.70;;
23155;SDS011;11746;50.876;4.246;2022-09-28T14:37:20;2.70;;;0.60;;
23155;SDS011;11746;50.876;4.246;2022-09-28T14:43:18;2.20;;;0.50;;
23155;SDS011;11746;50.876;4.246;2022-09-28T14:48:47;2.45;;;0.70;;
23155;SDS011;11746;50.876;4.246;2022-09-28T14:56:47;2.33;;;0.63;;
23155;SDS011;11746;50.876;4.246;2022-09-28T14:59:18;3.28;;;0.75;;
23155;SDS011;11746;50.876;4.246;2022-09-28T15:01:49;2.45;;;0.57;;
23155;SDS011;11746;50.876;4.246;2022-09-28T15:04:18;4.15;;;0.90;;
23155;SDS011;11746;50.876;4.246;2022-09-28T15:06:50;2.17;;;0.70;;
23155;SDS011;11746;50.876;4.246;2022-09-28T15:09:28;2.13;;;0.60;;
23155;SDS011;11746;50.876;4.246;2022-09-28T15:12:02;1.15;;;0.45;;
23155;SDS011;11746;50.876;4.246;2022-09-28T15:14:29;5.43;;;0.82;;
23155;SDS011;11746;50.876;4.246;2022-09-28T15:16:59;3.25;;;0.95;;
23155;SDS011;11746;50.876;4.246;2022-09-28T15:19:36;2.25;;;0.50;;
23155;SDS011;11746;50.876;4.246;2022-09-28T15:22:18;1.50;;;0.60;;
23155;SDS011;11746;50.876;4.246;2022-09-28T15:24:57;5.05;;;0.60;;
23155;SDS011;11746;50.876;4.246;2022-09-28T15:27:32;3.53;;;0.70;;
23155;SDS011;11746;50.876;4.246;2022-09-28T15:30:21;3.08;;;0.68;;
23155;SDS011;11746;50.876;4.246;2022-09-28T15:32:52;3.03;;;0.80;;
23155;SDS011;11746;50.876;4.246;2022-09-28T15:35:41;2.08;;;0.68;;
23155;SDS011;11746;50.876;4.246;2022-09-28T15:38:11;5.25;;;0.63;;
23155;SDS011;11746;50.876;4.246;2022-09-28T15:40:41;2.08;;;0.50;;
23155;SDS011;11746;50.876;4.246;2022-09-28T15:43:19;2.17;;;0.98;;
23155;SDS011;11746;50.876;4.246;2022-09-28T15:45:45;1.75;;;0.63;;
23155;SDS011;11746;50.876;4.246;2022-09-28T15:49:04;1.50;;;0.60;;
23155;SDS011;11746;50.876;4.246;2022-09-28T15:51:24;2.70;;;0.90;;
23155;SDS011;11746;50.876;4.246;2022-09-28T15:56:53;3.22;;;0.98;;
23155;SDS011;11746;50.876;4.246;2022-09-28T15:59:28;1.42;;;0.77;;
23155;SDS011;11746;50.876;4.246;2022-09-28T16:04:42;2.85;;;0.75;;
23155;SDS011;11746;50.876;4.246;2022-09-28T16:09:53;3.78;;;0.90;;
23155;SDS011;11746;50.876;4.246;2022-09-28T16:12:23;5.10;;;0.98;;
23155;SDS011;11746;50.876;4.246;2022-09-28T16:15:09;3.97;;;0.75;;
23155;SDS011;11746;50.876;4.246;2022-09-28T16:17:42;2.85;;;0.77;;
23155;SDS011;11746;50.876;4.246;2022-09-28T16:20:17;1.48;;;0.68;;
23155;SDS011;11746;50.876;4.246;2022-09-28T16:22:54;2.97;;;1.05;;
23155;SDS011;11746;50.876;4.246;2022-09-28T16:25:22;3.05;;;0.95;;
23155;SDS011;11746;50.876;4.246;2022-09-28T16:27:50;1.50;;;0.70;;
23155;SDS011;11746;50.876;4.246;2022-09-28T16:35:47;2.58;;;1.00;;
23155;SDS011;11746;50.876;4.246;2022-09-28T16:38:15;2.50;;;0.90;;
23155;SDS011;11746;50.876;4.246;2022-09-28T16:40:46;2.15;;;0.93;;
23155;SDS011;11746;50.876;4.246;2022-09-28T16:43:18;2.10;;;1.20;;
23155;SDS011;11746;50.876;4.246;2022-09-28T16:45:53;4.40;;;1.02;;
23155;SDS011;11746;50.876;4.246;2022-09-28T16:48:20;1.90;;;0.90;;
23155;SDS011;11746;50.876;4.246;2022-09-28T16:50:50;2.42;;;0.80;;
23155;SDS011;11746;50.876;4.246;2022-09-28T16:53:16;1.58;;;0.70;;
23155;SDS011;11746;50.876;4.246;2022-09-28T16:56:01;2.63;;;1.08;;
23155;SDS011;11746;50.876;4.246;2022-09-28T16:58:30;2.58;;;0.80;;
23155;SDS011;11746;50.876;4.246;2022-09-28T17:00:56;2.60;;;0.82;;
23155;SDS011;11746;50.876;4.246;2022-09-28T17:03:23;2.97;;;1.20;;
23155;SDS011;11746;50.876;4.246;2022-09-28T17:05:50;3.13;;;1.00;;
23155;SDS011;11746;50.876;4.246;2022-09-28T17:08:18;5.25;;;2.00;;
23155;SDS011;11746;50.876;4.246;2022-09-28T17:10:52;3.72;;;1.00;;
23155;SDS011;11746;50.876;4.246;2022-09-28T17:13:26;2.80;;;0.80;;
23155;SDS011;11746;50.876;4.246;2022-09-28T17:15:58;2.65;;;0.85;;
23155;SDS011;11746;50.876;4.246;2022-09-28T17:18:35;4.38;;;1.20;;
23155;SDS011;11746;50.876;4.246;2022-09-28T17:21:03;1.95;;;0.80;;
23155;SDS011;11746;50.876;4.246;2022-09-28T17:23:31;3.40;;;1.10;;
23155;SDS011;11746;50.876;4.246;2022-09-28T17:25:59;3.03;;;1.10;;
23155;SDS011;11746;50.876;4.246;2022-09-28T17:28:30;3.85;;;1.95;;
23155;SDS011;11746;50.876;4.246;2022-09-28T17:30:58;4.88;;;0.70;;
23155;SDS011;11746;50.876;4.246;2022-09-28T17:33:23;3.85;;;0.88;;
23155;SDS011;11746;50.876;4.246;2022-09-28T17:35:53;3.78;;;0.90;;
23155;SDS011;11746;50.876;4.246;2022-09-28T17:38:25;5.05;;;1.60;;
23155;SDS011;11746;50.876;4.246;2022-09-28T17:40:53;5.25;;;1.80;;
23155;SDS011;11746;50.876;4.246;2022-09-28T17:43:19;2.85;;;1.10;;
23155;SDS011;11746;50.876;4.246;2022-09-28T17:45:46;3.15;;;1.00;;
23155;SDS011;11746;50.876;4.246;2022-09-28T17:48:14;3.95;;;1.00;;
23155;SDS011;11746;50.876;4.246;2022-09-28T17:50:43;2.33;;;0.80;;
23155;SDS011;11746;50.876;4.246;2022-09-28T17:53:11;3.92;;;1.58;;
23155;SDS011;11746;50.876;4.246;2022-09-28T17:55:42;5.90;;;1.00;;
23155;SDS011;11746;50.876;4.246;2022-09-28T18:00:43;3.00;;;0.90;;
23155;SDS011;11746;50.876;4.246;2022-09-28T18:03:16;1.83;;;0.70;;
23155;SDS011;11746;50.876;4.246;2022-09-28T18:05:47;4.18;;;0.70;;
23155;SDS011;11746;50.876;4.246;2022-09-28T18:08:16;2.20;;;1.10;;
23155;SDS011;11746;50.876;4.246;2022-09-28T18:10:45;4.00;;;1.17;;
23155;SDS011;11746;50.876;4.246;2022-09-28T18:13:12;3.50;;;1.10;;
23155;SDS011;11746;50.876;4.246;2022-09-28T18:15:38;2.47;;;0.90;;